createdAt,value
2022-11-25T00:00:52.252Z,100.00
2022-11-25T00:03:49.455Z,100.00
2022-11-25T00:06:47.090Z,100.00
2022-11-25T00:09:44.278Z,100.00
2022-11-25T00:12:40.959Z,100.00
2022-11-25T00:15:38.104Z,100.00
2022-11-25T00:18:35.698Z,100.00
2022-11-25T00:21:34.127Z,100.00
2022-11-25T00:24:31.286Z,100.00
2022-11-25T00:27:28.413Z,100.00
2022-11-25T00:30:26.053Z,100.00
2022-11-25T00:33:24.350Z,100.00
2022-11-25T00:36:30.476Z,100.00
2022-11-25T00:39:28.822Z,100.00
2022-11-25T00:42:44.360Z,100.00
2022-11-25T00:45:41.700Z,100.00
2022-11-25T00:48:39.108Z,100.00
2022-11-25T00:51:36.119Z,100.00
2022-11-25T00:54:33.204Z,100.00
2022-11-25T00:57:30.196Z,100.00
2022-11-25T01:00:27.226Z,100.00
2022-11-25T01:03:24.292Z,100.00
2022-11-25T01:06:23.335Z,100.00
2022-11-25T01:09:20.187Z,100.00
2022-11-25T01:12:16.877Z,100.00
2022-11-25T01:15:14.322Z,100.00
2022-11-25T01:18:10.917Z,100.00
2022-11-25T01:21:09.493Z,100.00
2022-11-25T01:24:07.411Z,100.00
2022-11-25T01:27:04.986Z,100.00
2022-11-25T01:30:02.154Z,100.00
2022-11-25T01:33:00.165Z,100.00
2022-11-25T01:35:57.056Z,100.00
2022-11-25T01:38:55.895Z,100.00
2022-11-25T01:41:53.352Z,100.00
2022-11-25T01:45:26.562Z,100.00
2022-11-25T01:48:27.688Z,100.00
2022-11-25T01:51:30.070Z,100.00
2022-11-25T01:54:28.384Z,100.00
2022-11-25T01:57:37.382Z,100.00
2022-11-25T02:00:34.125Z,100.00
2022-11-25T02:03:41.306Z,100.00
2022-11-25T02:06:49.868Z,100.00
2022-11-25T02:09:47.051Z,100.00
2022-11-25T02:12:45.158Z,100.00
2022-11-25T02:15:42.410Z,100.00
2022-11-25T02:18:39.074Z,100.00
2022-11-25T02:21:47.245Z,100.00
2022-11-25T02:24:48.050Z,100.00
2022-11-25T02:27:48.069Z,100.00
2022-11-25T02:30:46.228Z,100.00
2022-11-25T02:33:44.190Z,100.00
2022-11-25T02:36:41.416Z,100.00
2022-11-25T02:39:38.152Z,100.00
2022-11-25T02:42:35.087Z,100.00
2022-11-25T02:45:52.163Z,100.00
2022-11-25T02:49:09.294Z,100.00
2022-11-25T02:52:06.970Z,100.00
2022-11-25T02:55:04.519Z,100.00
2022-11-25T02:58:02.427Z,100.00
2022-11-25T03:00:59.031Z,100.00
2022-11-25T03:03:55.998Z,100.00
2022-11-25T03:06:53.173Z,100.00
2022-11-25T03:09:50.230Z,100.00
2022-11-25T03:12:47.450Z,100.00
2022-11-25T03:15:45.207Z,100.00
2022-11-25T03:18:42.272Z,100.00
2022-11-25T03:21:39.347Z,100.00
2022-11-25T03:24:36.609Z,100.00
2022-11-25T03:27:34.466Z,100.00
2022-11-25T03:30:32.402Z,100.00
2022-11-25T03:33:32.403Z,100.00
2022-11-25T03:36:29.545Z,100.00
2022-11-25T03:39:27.249Z,100.00
2022-11-25T03:42:24.143Z,100.00
2022-11-25T03:45:21.428Z,100.00
2022-11-25T03:48:18.416Z,100.00
2022-11-25T03:51:15.394Z,100.00
2022-11-25T03:54:14.037Z,100.00
2022-11-25T03:57:37.346Z,100.00
2022-11-25T04:00:34.016Z,100.00
2022-11-25T04:03:34.350Z,100.00
2022-11-25T04:06:32.141Z,100.00
2022-11-25T04:09:31.011Z,100.00
2022-11-25T04:12:48.442Z,100.00
2022-11-25T04:16:19.122Z,100.00
2022-11-25T04:19:16.246Z,100.00
2022-11-25T04:22:13.206Z,100.00
2022-11-25T04:25:14.352Z,100.00
2022-11-25T04:28:11.371Z,100.00
2022-11-25T04:31:08.699Z,100.00
2022-11-25T04:34:09.276Z,100.00
2022-11-25T04:37:06.376Z,100.00
2022-11-25T04:40:03.641Z,100.00
2022-11-25T04:43:07.603Z,100.00
2022-11-25T04:46:19.722Z,100.00
2022-11-25T04:49:20.053Z,100.00
2022-11-25T04:52:17.176Z,100.00
2022-11-25T04:55:14.027Z,100.00
2022-11-25T04:58:11.892Z,100.00
2022-11-25T05:01:10.208Z,100.00
2022-11-25T05:04:11.359Z,100.00
2022-11-25T05:07:09.396Z,100.00
2022-11-25T05:10:07.927Z,100.00
2022-11-25T05:13:12.134Z,100.00
2022-11-25T05:16:09.355Z,100.00
2022-11-25T05:19:06.186Z,100.00
2022-11-25T05:22:03.091Z,100.00
2022-11-25T05:25:00.556Z,100.00
2022-11-25T05:27:58.188Z,100.00
2022-11-25T05:30:55.067Z,100.00
2022-11-25T05:33:52.513Z,100.00
2022-11-25T05:36:51.989Z,100.00
2022-11-25T05:39:49.433Z,100.00
2022-11-25T05:43:03.479Z,100.00
2022-11-25T05:46:06.686Z,100.00
2022-11-25T05:49:05.471Z,100.00
2022-11-25T05:52:03.189Z,100.00
2022-11-25T05:55:05.446Z,100.00
2022-11-25T05:58:04.804Z,100.00
2022-11-25T06:01:07.155Z,100.00
2022-11-25T06:04:04.618Z,100.00
2022-11-25T06:07:02.124Z,100.00
2022-11-25T06:10:03.100Z,100.00
2022-11-25T06:13:02.391Z,100.00
2022-11-25T06:16:03.499Z,100.00
2022-11-25T06:19:06.883Z,100.00
2022-11-25T06:22:04.833Z,100.00
2022-11-25T06:25:04.088Z,100.00
2022-11-25T06:28:12.890Z,100.00
2022-11-25T06:31:17.720Z,100.00
2022-11-25T06:34:47.455Z,100.00
2022-11-25T06:37:59.518Z,100.00
2022-11-25T06:41:00.588Z,100.00
2022-11-25T06:43:58.311Z,100.00
2022-11-25T06:46:55.467Z,100.00
2022-11-25T06:49:52.408Z,100.00
2022-11-25T06:52:49.279Z,100.00
2022-11-25T06:55:46.272Z,100.00
2022-11-25T06:58:43.535Z,100.00
2022-11-25T07:01:40.754Z,100.00
2022-11-25T07:04:38.542Z,100.00
2022-11-25T07:07:35.261Z,100.00
2022-11-25T07:10:33.847Z,100.00
2022-11-25T07:13:31.444Z,100.00
2022-11-25T07:16:29.145Z,100.00
2022-11-25T07:19:26.377Z,100.00
2022-11-25T07:22:23.208Z,100.00
2022-11-25T07:25:20.298Z,100.00
2022-11-25T07:28:17.336Z,100.00
2022-11-25T07:31:27.792Z,100.00
2022-11-25T07:34:25.753Z,100.00
2022-11-25T07:37:23.486Z,100.00
2022-11-25T07:40:20.433Z,100.00
2022-11-25T07:43:17.376Z,100.00
2022-11-25T07:46:26.255Z,100.00
2022-11-25T07:49:27.330Z,100.00
2022-11-25T07:52:24.534Z,100.00
2022-11-25T07:55:21.677Z,100.00
2022-11-25T07:58:18.471Z,100.00
2022-11-25T08:01:15.793Z,100.00
2022-11-25T08:04:19.440Z,100.00
2022-11-25T08:07:16.464Z,100.00
2022-11-25T08:10:13.576Z,100.00
2022-11-25T08:13:10.609Z,100.00
2022-11-25T08:16:08.210Z,100.00
2022-11-25T08:19:07.495Z,100.00
2022-11-25T08:22:04.683Z,100.00
2022-11-25T08:25:02.097Z,100.00
2022-11-25T08:27:59.871Z,100.00
2022-11-25T08:31:08.775Z,100.00
2022-11-25T08:34:06.781Z,100.00
2022-11-25T08:37:04.356Z,100.00
2022-11-25T08:40:01.445Z,100.00
2022-11-25T08:42:58.489Z,100.00
2022-11-25T08:45:55.670Z,100.00
2022-11-25T08:48:52.528Z,100.00
2022-11-25T08:51:49.797Z,100.00
2022-11-25T08:54:47.686Z,100.00
2022-11-25T08:57:44.710Z,100.00
2022-11-25T09:00:42.953Z,100.00
2022-11-25T09:03:42.445Z,100.00
2022-11-25T09:06:39.547Z,100.00
2022-11-25T09:09:37.006Z,100.00
2022-11-25T09:12:34.483Z,100.00
2022-11-25T09:15:32.630Z,100.00
2022-11-25T09:18:30.512Z,100.00
2022-11-25T09:21:27.666Z,100.00
2022-11-25T09:24:24.420Z,100.00
2022-11-25T09:27:21.668Z,100.00
2022-11-25T09:30:18.668Z,100.00
2022-11-25T09:33:15.613Z,100.00
2022-11-25T09:36:13.234Z,100.00
2022-11-25T09:39:10.228Z,100.00
2022-11-25T09:42:38.018Z,100.00
2022-11-25T09:46:39.591Z,100.00
2022-11-25T09:49:56.660Z,100.00
2022-11-25T09:53:15.717Z,100.00
2022-11-25T09:56:31.077Z,100.00
2022-11-25T09:59:49.679Z,100.00
2022-11-25T10:03:01.442Z,100.00
2022-11-25T10:06:06.150Z,100.00
2022-11-25T10:09:17.115Z,100.00
2022-11-25T10:12:23.626Z,100.00
2022-11-25T10:15:47.280Z,100.00
2022-11-25T10:18:48.103Z,100.00
2022-11-25T10:21:46.444Z,100.00
2022-11-25T10:24:44.214Z,100.00
2022-11-25T10:27:57.583Z,100.00
2022-11-25T10:31:17.478Z,100.00
2022-11-25T10:34:37.330Z,100.00
2022-11-25T10:37:38.901Z,100.00
2022-11-25T10:40:36.554Z,100.00
2022-11-25T10:43:33.896Z,100.00
2022-11-25T10:47:11.017Z,100.00
2022-11-25T10:50:16.172Z,100.00
2022-11-25T10:53:14.221Z,100.00
2022-11-25T10:56:17.496Z,100.00
2022-11-25T10:59:34.283Z,100.00
2022-11-25T11:02:38.549Z,100.00
2022-11-25T11:05:35.427Z,100.00
2022-11-25T11:08:39.734Z,100.00
2022-11-25T11:11:47.306Z,100.00
2022-11-25T11:14:44.948Z,100.00
2022-11-25T11:17:42.901Z,100.00
2022-11-25T11:20:44.959Z,100.00
2022-11-25T11:23:53.621Z,100.00
2022-11-25T11:27:03.798Z,100.00
2022-11-25T11:30:11.064Z,100.00
2022-11-25T11:33:28.615Z,100.00
2022-11-25T11:36:44.367Z,100.00
2022-11-25T11:40:15.552Z,100.00
2022-11-25T11:43:37.693Z,100.00
2022-11-25T11:46:47.052Z,100.00
2022-11-25T11:50:19.768Z,100.00
2022-11-25T11:53:23.596Z,99.92
2022-11-25T11:56:55.768Z,100.00
2022-11-25T11:59:53.525Z,98.25
2022-11-25T12:03:13.300Z,98.20
2022-11-25T12:06:10.422Z,97.38
2022-11-25T12:09:16.851Z,98.92
2022-11-25T12:12:15.517Z,98.62
2022-11-25T12:15:17.345Z,99.89
2022-11-25T12:18:23.454Z,99.48
2022-11-25T12:21:42.474Z,98.17
2022-11-25T12:25:02.580Z,95.57
2022-11-25T12:28:08.926Z,94.85
2022-11-25T12:31:17.186Z,94.61
2022-11-25T12:34:31.649Z,94.86
2022-11-25T12:37:36.418Z,94.83
2022-11-25T12:40:48.044Z,93.80
2022-11-25T12:43:55.670Z,92.65
2022-11-25T12:46:54.020Z,93.94
2022-11-25T12:49:51.915Z,94.20
2022-11-25T12:53:12.560Z,94.39
2022-11-25T12:56:18.566Z,94.78
2022-11-25T12:59:40.057Z,96.43
2022-11-25T13:03:01.992Z,94.62
2022-11-25T13:06:04.782Z,94.72
2022-11-25T13:09:16.083Z,94.56
2022-11-25T13:12:41.500Z,94.30
2022-11-25T13:15:49.227Z,92.31
2022-11-25T13:18:46.613Z,94.07
2022-11-25T13:21:55.754Z,94.82
2022-11-25T13:24:52.569Z,94.35
2022-11-25T13:27:56.732Z,94.23
2022-11-25T13:30:53.524Z,93.48
2022-11-25T13:34:09.195Z,93.74
2022-11-25T13:37:36.644Z,93.22
2022-11-25T13:40:37.882Z,93.70
2022-11-25T13:43:34.531Z,93.67
2022-11-25T13:46:44.817Z,93.17
2022-11-25T13:49:49.801Z,92.65
2022-11-25T13:52:59.658Z,93.36
2022-11-25T13:56:16.046Z,94.31
2022-11-25T13:59:17.155Z,95.90
2022-11-25T14:02:31.837Z,96.20
2022-11-25T14:05:28.388Z,96.00
2022-11-25T14:09:05.014Z,95.63
2022-11-25T14:12:56.246Z,95.57
2022-11-25T14:16:35.483Z,96.17
2022-11-25T14:19:52.714Z,96.26
2022-11-25T14:23:22.584Z,96.35
2022-11-25T14:26:49.235Z,96.71
2022-11-25T14:29:59.793Z,95.69
2022-11-25T14:32:59.731Z,95.05
2022-11-25T14:36:00.798Z,94.81
2022-11-25T14:39:02.073Z,94.72
2022-11-25T14:42:32.385Z,95.92
2022-11-25T14:45:33.674Z,95.64
2022-11-25T14:48:30.568Z,95.11
2022-11-25T14:51:33.595Z,95.73
2022-11-25T14:54:30.651Z,95.42
2022-11-25T14:57:29.486Z,95.86
2022-11-25T15:00:27.475Z,97.11
2022-11-25T15:03:25.125Z,97.01
2022-11-25T15:06:22.919Z,98.16
2022-11-25T15:09:36.965Z,100.00
2022-11-25T15:12:34.900Z,100.00
2022-11-25T15:15:31.797Z,100.00
2022-11-25T15:18:29.062Z,100.00
2022-11-25T15:21:34.173Z,99.65
2022-11-25T15:24:32.769Z,97.91
2022-11-25T15:27:29.718Z,97.38
2022-11-25T15:30:29.195Z,97.75
2022-11-25T15:33:26.707Z,97.48
2022-11-25T15:36:24.101Z,97.39
2022-11-25T15:39:20.884Z,98.15
2022-11-25T15:42:22.471Z,98.54
2022-11-25T15:45:20.831Z,97.70
2022-11-25T15:48:29.141Z,97.38
2022-11-25T15:51:44.596Z,97.49
2022-11-25T15:54:45.097Z,97.82
2022-11-25T15:57:46.230Z,98.98
2022-11-25T16:01:19.484Z,99.53
2022-11-25T16:04:20.762Z,98.38
2022-11-25T16:07:24.011Z,97.58
2022-11-25T16:10:28.688Z,97.19
2022-11-25T16:13:29.723Z,96.06
2022-11-25T16:16:30.127Z,96.59
2022-11-25T16:19:37.601Z,96.15
2022-11-25T16:22:35.873Z,95.99
2022-11-25T16:25:32.812Z,96.18
2022-11-25T16:28:29.832Z,96.29
2022-11-25T16:31:27.131Z,96.07
2022-11-25T16:34:25.650Z,96.05
2022-11-25T16:37:23.382Z,96.13
2022-11-25T16:40:20.914Z,95.94
2022-11-25T16:43:23.520Z,97.53
2022-11-25T16:46:38.979Z,98.80
2022-11-25T16:49:36.209Z,100.00
2022-11-25T16:52:33.981Z,99.39
2022-11-25T16:55:30.926Z,98.88
2022-11-25T16:58:27.787Z,97.94
2022-11-25T17:01:26.483Z,99.46
2022-11-25T17:04:23.819Z,100.00
2022-11-25T17:07:38.392Z,99.65
2022-11-25T17:10:35.680Z,98.27
2022-11-25T17:13:34.055Z,97.00
2022-11-25T17:16:30.777Z,95.72
2022-11-25T17:19:28.522Z,96.07
2022-11-25T17:22:27.116Z,96.30
2022-11-25T17:25:23.992Z,96.06
2022-11-25T17:28:21.086Z,98.15
2022-11-25T17:31:18.041Z,99.42
2022-11-25T17:34:16.284Z,99.90
2022-11-25T17:37:22.681Z,100.00
2022-11-25T17:40:19.757Z,100.00
2022-11-25T17:43:18.304Z,100.00
2022-11-25T17:46:16.822Z,100.00
2022-11-25T17:49:14.823Z,100.00
2022-11-25T17:52:12.136Z,100.00
2022-11-25T17:55:09.109Z,100.00
2022-11-25T17:58:06.353Z,100.00
2022-11-25T18:01:04.025Z,99.73
2022-11-25T18:04:09.990Z,99.27
2022-11-25T18:07:10.937Z,100.00
2022-11-25T18:10:08.975Z,100.00
2022-11-25T18:13:05.822Z,100.00
2022-11-25T18:16:02.954Z,99.80
2022-11-25T18:18:59.956Z,99.94
2022-11-25T18:22:00.805Z,99.25
2022-11-25T18:24:58.219Z,98.57
2022-11-25T18:27:56.546Z,99.27
2022-11-25T18:30:54.638Z,99.36
2022-11-25T18:33:51.968Z,100.00
2022-11-25T18:36:49.997Z,100.00
2022-11-25T18:39:49.146Z,100.00
2022-11-25T18:42:48.840Z,99.61
2022-11-25T18:45:46.441Z,99.08
2022-11-25T18:48:44.013Z,99.76
2022-11-25T18:51:41.108Z,99.94
2022-11-25T18:54:38.637Z,100.00
2022-11-25T18:57:36.056Z,100.00
2022-11-25T19:00:33.542Z,100.00
2022-11-25T19:03:30.824Z,100.00
2022-11-25T19:06:29.304Z,100.00
2022-11-25T19:09:27.268Z,100.00
2022-11-25T19:12:25.170Z,100.00
2022-11-25T19:15:23.730Z,100.00
2022-11-25T19:18:24.683Z,100.00
2022-11-25T19:21:22.140Z,100.00
2022-11-25T19:24:19.337Z,100.00
2022-11-25T19:27:21.681Z,100.00
2022-11-25T19:30:23.800Z,100.00
2022-11-25T19:33:27.892Z,100.00
2022-11-25T19:36:26.542Z,100.00
2022-11-25T19:39:23.920Z,100.00
2022-11-25T19:42:21.339Z,100.00
2022-11-25T19:45:20.130Z,100.00
2022-11-25T19:48:18.386Z,100.00
2022-11-25T19:51:20.549Z,100.00
2022-11-25T19:54:18.674Z,100.00
2022-11-25T19:57:17.111Z,100.00
2022-11-25T20:00:15.022Z,100.00
2022-11-25T20:03:23.595Z,100.00
2022-11-25T20:06:21.091Z,100.00
2022-11-25T20:09:18.055Z,100.00
2022-11-25T20:12:21.069Z,100.00
2022-11-25T20:15:18.000Z,100.00
2022-11-25T20:18:20.044Z,100.00
2022-11-25T20:21:28.265Z,100.00
2022-11-25T20:24:27.045Z,100.00
2022-11-25T20:27:26.293Z,100.00
2022-11-25T20:30:24.687Z,100.00
2022-11-25T20:33:24.739Z,100.00
2022-11-25T20:36:23.521Z,100.00
2022-11-25T20:39:21.002Z,100.00
2022-11-25T20:42:18.142Z,100.00
2022-11-25T20:45:20.120Z,100.00
2022-11-25T20:48:17.288Z,100.00
2022-11-25T20:51:20.003Z,100.00
2022-11-25T20:54:17.730Z,100.00
2022-11-25T20:57:14.883Z,100.00
2022-11-25T21:00:23.288Z,100.00
2022-11-25T21:03:19.993Z,100.00
2022-11-25T21:06:26.709Z,100.00
2022-11-25T21:09:26.732Z,100.00
2022-11-25T21:12:23.795Z,100.00
2022-11-25T21:15:22.906Z,100.00
2022-11-25T21:18:20.528Z,100.00
2022-11-25T21:21:31.821Z,100.00
2022-11-25T21:24:32.286Z,100.00
2022-11-25T21:27:29.024Z,100.00
2022-11-25T21:30:28.222Z,100.00
2022-11-25T21:33:24.869Z,99.68
2022-11-25T21:36:23.467Z,98.01
2022-11-25T21:39:30.568Z,100.00
2022-11-25T21:42:28.190Z,100.00
2022-11-25T21:45:25.032Z,100.00
2022-11-25T21:48:25.827Z,99.92
2022-11-25T21:51:24.415Z,100.00
2022-11-25T21:54:22.044Z,100.00
2022-11-25T21:57:21.854Z,99.58
2022-11-25T22:00:21.921Z,100.00
2022-11-25T22:03:19.455Z,97.48
2022-11-25T22:06:29.650Z,99.80
2022-11-25T22:09:27.388Z,100.00
2022-11-25T22:12:30.064Z,100.00
2022-11-25T22:15:27.199Z,100.00
2022-11-25T22:18:32.144Z,100.00
2022-11-25T22:21:29.076Z,100.00
2022-11-25T22:24:25.912Z,100.00
2022-11-25T22:27:28.399Z,99.21
2022-11-25T22:30:26.054Z,99.68
2022-11-25T22:33:29.944Z,98.87
2022-11-25T22:36:37.275Z,100.00
2022-11-25T22:39:34.150Z,100.00
2022-11-25T22:42:31.243Z,100.00
2022-11-25T22:45:31.130Z,100.00
2022-11-25T22:48:35.211Z,100.00
2022-11-25T22:51:32.083Z,99.86
2022-11-25T22:54:29.024Z,99.89
2022-11-25T22:57:25.899Z,99.34
2022-11-25T23:00:25.339Z,99.29
2022-11-25T23:03:33.928Z,98.15
2022-11-25T23:06:31.173Z,99.15
2022-11-25T23:09:28.232Z,99.04
2022-11-25T23:12:25.906Z,98.98
2022-11-25T23:15:23.334Z,100.00
2022-11-25T23:18:26.294Z,100.00
2022-11-25T23:21:24.082Z,100.00
2022-11-25T23:24:21.175Z,100.00
2022-11-25T23:27:18.332Z,100.00
2022-11-25T23:30:19.078Z,100.00
2022-11-25T23:33:31.317Z,100.00
2022-11-25T23:36:30.184Z,100.00
2022-11-25T23:39:27.059Z,100.00
2022-11-25T23:42:24.734Z,100.00
2022-11-25T23:45:25.991Z,100.00
2022-11-25T23:48:24.900Z,100.00
2022-11-25T23:51:22.940Z,100.00
2022-11-25T23:54:20.155Z,100.00
2022-11-25T23:57:18.208Z,100.00
